メインページ
METAR-TAF:

METAR-TAF

空港 :

ポートオブスペイン, トリニダード島, トリニダード・トバゴ

緯度: 10-37N, 経度: 061-21W, 海抜: 12m

現時点の気象観測

当レポートは18分前の19:00(UTC)に作成
の風 14kt
気温 28°C
湿度 66%
気圧 1013 hPa
視程10km以上
高度1700ftの千切れ雲あり
弱いにわか雨

METAR: TTPP 251900Z 09014KT 9999 -SHRA BKN017 28/21 Q1013 RMK SHWR TO N

時間: 15:18 (19:18 UTC)

予報

当レポートは3時間18分前の16:00(UTC)に作成
予報は25日の 18時(UTC)から 26日の 18時(UTC)まで有効
の風 15kt
視程10km以上
高度1800ftの雲は散在している
高度3500ftの雲は散在している
25日の 18時(UTC)から 25日の 22時(UTC)まで一時的に
視程: 6000m
高度1500ftの千切れ雲あり
高度3500ftの千切れ雲あり
26日の 00時(UTC)から 26日の 02時(UTC)まで徐々に
の風 5kt
高度1500ftの雲は散在している
確率 40% :
26日の 06時(UTC)から 26日の 12時(UTC)まで一時的に
視程: 5000m
高度1500ftの千切れ雲あり
26日の 11時(UTC)から 26日の 13時(UTC)まで徐々に
の風 15kt
高度1800ftの雲は散在している

TAF: TTPP 251600Z 2518/2618 09015KT 9999 SCT018 SCT035 TEMPO 2518/2522 6000 SHRA/VCSH BKN015 BKN035 BECMG 2600/2602 09005KT SCT015 PROB40 TEMPO 2606/2612 5000 SHRA/VCSH BKN015 BECMG 2611/2613 08015KT SCT018

4,000以上の空港の気象観測と天気予報(METAR報とTAF報)

利用可能な観測所は地図上に黄色い丸と赤い丸で示す。

丸の上にカーソルを重ねると観測所名を参照できる。

次にクリックすると気象観測と天気予報を参照できる。

マップの切り替え:黒色「×」印の緑ボタンをクリックして拡大、「-」印の緑ボタンをクリックして縮小、緑色の三角印をクリックして隣りの地図に切り替え


METAR-TAF: